createdAt,value
2023-05-24T00:01:20.994Z,101133.31
2023-05-24T00:03:47.467Z,101133.56
2023-05-24T00:06:13.826Z,101128.41
2023-05-24T00:08:40.076Z,101140.56
2023-05-24T00:11:06.425Z,101140.06
2023-05-24T00:13:33.143Z,101131.09
2023-05-24T00:16:04.062Z,101130.81
2023-05-24T00:18:35.542Z,101142.72
2023-05-24T00:21:03.120Z,101139.75
2023-05-24T00:23:32.726Z,101144.59
2023-05-24T00:25:59.109Z,101151.91
2023-05-24T00:28:31.212Z,101156.50
2023-05-24T00:31:01.391Z,101154.88
2023-05-24T00:33:32.080Z,101163.25
2023-05-24T00:35:58.354Z,101155.63
2023-05-24T00:38:28.431Z,101156.44
2023-05-24T00:40:54.707Z,101160.78
2023-05-24T00:43:25.333Z,101170.56
2023-05-24T00:45:52.700Z,101167.28
2023-05-24T00:48:20.317Z,101173.50
2023-05-24T00:50:49.595Z,101164.81
2023-05-24T00:53:20.912Z,101171.03
2023-05-24T00:55:47.202Z,101175.91
2023-05-24T00:58:15.858Z,101177.00
2023-05-24T01:00:42.286Z,101163.34
2023-05-24T01:03:08.798Z,101172.56
2023-05-24T01:05:39.159Z,101170.75
2023-05-24T01:08:10.381Z,101173.13
2023-05-24T01:10:36.632Z,101171.81
2023-05-24T01:13:09.473Z,101171.47
2023-05-24T01:15:35.763Z,101179.88
2023-05-24T01:18:02.118Z,101173.63
2023-05-24T01:20:31.115Z,101170.66
2023-05-24T01:23:03.450Z,101181.44
2023-05-24T01:25:29.701Z,101184.47
2023-05-24T01:27:58.941Z,101181.44
2023-05-24T01:30:25.209Z,101182.00
2023-05-24T01:32:51.505Z,101188.25
2023-05-24T01:35:19.723Z,101187.09
2023-05-24T01:37:53.719Z,101193.31
2023-05-24T01:40:22.586Z,101186.28
2023-05-24T01:42:52.923Z,101194.91
2023-05-24T01:45:19.361Z,101198.19
2023-05-24T01:47:45.795Z,101198.44
2023-05-24T01:50:18.439Z,101200.06
2023-05-24T01:52:44.951Z,101190.06
2023-05-24T01:55:11.198Z,101197.63
2023-05-24T01:57:40.925Z,101196.22
2023-05-24T02:00:07.583Z,101194.91
2023-05-24T02:02:35.014Z,101198.13
2023-05-24T02:05:05.502Z,101189.41
2023-05-24T02:07:33.439Z,101188.59
2023-05-24T02:09:59.738Z,101196.47
2023-05-24T02:12:25.992Z,101188.59
2023-05-24T02:14:52.265Z,101187.78
2023-05-24T02:17:18.525Z,101189.41
2023-05-24T02:19:44.788Z,101183.44
2023-05-24T02:22:11.038Z,101189.06
2023-05-24T02:24:37.284Z,101199.06
2023-05-24T02:27:08.057Z,101194.41
2023-05-24T02:29:41.131Z,101185.78
2023-05-24T02:32:07.841Z,101185.19
2023-05-24T02:34:41.250Z,101189.53
2023-05-24T02:37:13.316Z,101188.97
2023-05-24T02:39:39.643Z,101189.78
2023-05-24T02:42:10.241Z,101190.88
2023-05-24T02:44:42.577Z,101192.19
2023-05-24T02:47:08.858Z,101190.88
2023-05-24T02:49:35.901Z,101182.97
2023-05-24T02:52:02.148Z,101192.19
2023-05-24T02:54:28.389Z,101181.09
2023-05-24T02:56:55.986Z,101182.97
2023-05-24T02:59:22.312Z,101184.31
2023-05-24T03:01:49.829Z,101187.59
2023-05-24T03:04:19.662Z,101178.09
2023-05-24T03:06:45.929Z,101182.66
2023-05-24T03:09:12.276Z,101185.94
2023-05-24T03:11:44.605Z,101189.72
2023-05-24T03:14:16.765Z,101189.16
2023-05-24T03:16:43.322Z,101195.38
2023-05-24T03:19:10.120Z,101195.66
2023-05-24T03:21:36.645Z,101201.88
2023-05-24T03:24:02.943Z,101204.81
2023-05-24T03:26:34.732Z,101210.22
2023-05-24T03:29:08.478Z,101210.22
2023-05-24T03:31:39.875Z,101211.91
2023-05-24T03:34:06.186Z,101206.38
2023-05-24T03:36:40.286Z,101208.59
2023-05-24T03:39:06.525Z,101211.22
2023-05-24T03:41:32.777Z,101210.41
2023-05-24T03:44:03.942Z,101207.44
2023-05-24T03:46:33.797Z,101212.31
2023-05-24T03:49:00.146Z,101212.06
2023-05-24T03:51:36.384Z,101205.81
2023-05-24T03:54:02.703Z,101210.06
2023-05-24T03:56:29.074Z,101211.78
2023-05-24T03:59:01.577Z,101209.09
2023-05-24T04:01:34.544Z,101210.16
2023-05-24T04:04:01.867Z,101214.41
2023-05-24T04:06:30.165Z,101220.91
2023-05-24T04:08:56.424Z,101225.25
2023-05-24T04:11:27.050Z,101228.44
2023-05-24T04:13:54.088Z,101234.44
2023-05-24T04:16:20.520Z,101238.22
2023-05-24T04:18:48.442Z,101241.97
2023-05-24T04:21:14.920Z,101246.00
2023-05-24T04:23:46.757Z,101253.06
2023-05-24T04:26:13.038Z,101243.88
2023-05-24T04:28:44.389Z,101246.81
2023-05-24T04:31:18.638Z,101248.38
2023-05-24T04:33:44.905Z,101260.59
2023-05-24T04:36:11.150Z,101257.91
2023-05-24T04:38:37.410Z,101264.38
2023-05-24T04:41:06.364Z,101263.56
2023-05-24T04:43:38.566Z,101263.00
2023-05-24T04:46:06.306Z,101267.00
2023-05-24T04:48:42.880Z,101269.22
2023-05-24T04:51:09.160Z,101265.69
2023-05-24T04:53:35.436Z,101277.00
2023-05-24T04:56:01.943Z,101273.22
2023-05-24T04:58:33.262Z,101271.03
2023-05-24T05:01:02.299Z,101275.69
2023-05-24T05:03:28.607Z,101277.25
2023-05-24T05:05:54.948Z,101280.53
2023-05-24T05:08:24.739Z,101282.19
2023-05-24T05:10:54.689Z,101288.91
2023-05-24T05:13:20.941Z,101291.63
2023-05-24T05:15:50.949Z,101285.03
2023-05-24T05:18:18.756Z,101294.22
2023-05-24T05:20:45.606Z,101288.22
2023-05-24T05:23:12.175Z,101293.16
2023-05-24T05:25:41.501Z,101299.66
2023-05-24T05:28:09.007Z,101295.03
2023-05-24T05:30:37.821Z,101303.75
2023-05-24T05:33:04.114Z,101309.50
2023-05-24T05:35:30.579Z,101304.56
2023-05-24T05:37:59.146Z,101313.19
2023-05-24T05:40:28.085Z,101314.81
2023-05-24T05:42:56.305Z,101311.88
2023-05-24T05:45:22.592Z,101317.53
2023-05-24T05:47:49.003Z,101314.81
2023-05-24T05:50:20.378Z,101315.38
2023-05-24T05:52:46.624Z,101317.75
2023-05-24T05:55:17.595Z,101314.22
2023-05-24T05:57:43.987Z,101313.66
2023-05-24T06:00:10.978Z,101309.88
2023-05-24T06:02:37.295Z,101303.38
2023-05-24T06:05:04.796Z,101320.22
2023-05-24T06:07:31.405Z,101319.16
2023-05-24T06:09:58.196Z,101315.06
2023-05-24T06:12:24.470Z,101318.84
2023-05-24T06:14:56.304Z,101317.19
2023-05-24T06:17:23.045Z,101329.31
2023-05-24T06:19:50.336Z,101324.47
2023-05-24T06:22:17.043Z,101326.72
2023-05-24T06:24:43.279Z,101329.91
2023-05-24T06:27:09.521Z,101328.81
2023-05-24T06:29:35.851Z,101332.59
2023-05-24T06:32:07.274Z,101328.81
2023-05-24T06:34:37.788Z,101335.88
2023-05-24T06:37:04.220Z,101337.53
2023-05-24T06:39:30.517Z,101339.88
2023-05-24T06:41:56.816Z,101345.31
2023-05-24T06:44:25.269Z,101344.13
2023-05-24T06:46:51.725Z,101352.25
2023-05-24T06:49:22.366Z,101357.94
2023-05-24T06:51:53.071Z,101355.22
2023-05-24T06:54:19.403Z,101360.66
2023-05-24T06:56:47.929Z,101352.25
2023-05-24T06:59:14.409Z,101362.03
2023-05-24T07:01:45.300Z,101362.28
2023-05-24T07:04:11.633Z,101360.38
2023-05-24T07:06:45.141Z,101361.69
2023-05-24T07:09:15.088Z,101365.22
2023-05-24T07:11:41.395Z,101369.81
2023-05-24T07:14:07.695Z,101368.75
2023-05-24T07:16:37.841Z,101372.03
2023-05-24T07:19:07.988Z,101365.66
2023-05-24T07:21:42.266Z,101363.91
2023-05-24T07:24:08.538Z,101371.94
2023-05-24T07:26:34.821Z,101372.13
2023-05-24T07:29:01.900Z,101375.91
2023-05-24T07:31:32.939Z,101381.31
2023-05-24T07:34:04.697Z,101376.38
2023-05-24T07:36:39.843Z,101385.66
2023-05-24T07:39:11.451Z,101391.31
2023-05-24T07:41:41.244Z,101388.88
2023-05-24T07:44:10.890Z,101386.25
2023-05-24T07:46:37.259Z,101389.44
2023-05-24T07:49:03.523Z,101391.22
2023-05-24T07:51:31.818Z,101391.59
2023-05-24T07:54:02.933Z,101395.69
2023-05-24T07:56:29.194Z,101399.69
2023-05-24T07:58:57.037Z,101397.81
2023-05-24T08:01:24.230Z,101406.75
2023-05-24T08:03:50.611Z,101407.56
2023-05-24T08:06:17.085Z,101410.25
2023-05-24T08:08:43.517Z,101412.16
2023-05-24T08:11:14.832Z,101407.13
2023-05-24T08:13:46.451Z,101411.19
2023-05-24T08:16:12.713Z,101415.22
2023-05-24T08:18:39.068Z,101413.56
2023-05-24T08:21:05.649Z,101416.03
2023-05-24T08:23:35.870Z,101418.16
2023-05-24T08:26:02.131Z,101420.84
2023-05-24T08:28:28.459Z,101423.56
2023-05-24T08:30:55.279Z,101421.94
2023-05-24T08:33:21.554Z,101424.34
2023-05-24T08:35:47.804Z,101425.75
2023-05-24T08:38:14.149Z,101434.44
2023-05-24T08:40:42.957Z,101428.69
2023-05-24T08:43:09.377Z,101433.28
2023-05-24T08:45:36.874Z,101433.50
2023-05-24T08:48:04.144Z,101440.00
2023-05-24T08:50:38.274Z,101431.06
2023-05-24T08:53:05.756Z,101433.66
2023-05-24T08:55:33.462Z,101436.50
2023-05-24T08:57:59.844Z,101424.22
2023-05-24T09:00:26.218Z,101435.00
2023-05-24T09:02:57.078Z,101436.31
2023-05-24T09:05:23.541Z,101441.25
2023-05-24T09:07:49.786Z,101441.81
2023-05-24T09:10:17.228Z,101437.22
2023-05-24T09:12:47.476Z,101437.63
2023-05-24T09:15:13.981Z,101436.91
2023-05-24T09:17:40.285Z,101445.59
2023-05-24T09:20:10.476Z,101450.44
2023-05-24T09:22:39.564Z,101441.25
2023-05-24T09:25:12.652Z,101447.75
2023-05-24T09:27:39.050Z,101451.16
2023-05-24T09:30:09.692Z,101446.81
2023-05-24T09:32:36.041Z,101447.97
2023-05-24T09:35:02.406Z,101446.44
2023-05-24T09:37:32.872Z,101449.72
2023-05-24T09:39:59.604Z,101462.31
2023-05-24T09:42:31.099Z,101468.22
2023-05-24T09:44:58.708Z,101457.31
2023-05-24T09:47:25.104Z,101455.88
2023-05-24T09:49:52.968Z,101460.00
2023-05-24T09:52:20.241Z,101463.28
2023-05-24T09:54:52.313Z,101465.91
2023-05-24T09:57:22.686Z,101467.34
2023-05-24T09:59:49.005Z,101462.97
2023-05-24T10:02:19.985Z,101471.66
2023-05-24T10:04:49.918Z,101472.94
2023-05-24T10:07:24.541Z,101466.84
2023-05-24T10:09:50.852Z,101476.00
2023-05-24T10:12:18.949Z,101479.53
2023-05-24T10:14:47.765Z,101487.09
2023-05-24T10:17:15.968Z,101480.59
2023-05-24T10:19:42.259Z,101485.78
2023-05-24T10:22:08.520Z,101489.53
2023-05-24T10:24:34.809Z,101488.97
2023-05-24T10:27:01.086Z,101481.69
2023-05-24T10:29:30.705Z,101485.78
2023-05-24T10:31:56.999Z,101481.41
2023-05-24T10:34:23.266Z,101483.56
2023-05-24T10:36:49.734Z,101485.78
2023-05-24T10:39:21.343Z,101490.59
2023-05-24T10:41:47.803Z,101487.44
2023-05-24T10:44:14.278Z,101488.72
2023-05-24T10:46:41.912Z,101487.91
2023-05-24T10:49:11.626Z,101492.84
2023-05-24T10:51:37.898Z,101485.78
2023-05-24T10:54:04.712Z,101486.59
2023-05-24T10:56:32.105Z,101480.38
2023-05-24T10:58:58.450Z,101485.78
2023-05-24T11:01:30.063Z,101480.59
2023-05-24T11:03:57.471Z,101483.88
2023-05-24T11:06:28.385Z,101487.09
2023-05-24T11:08:59.655Z,101484.72
2023-05-24T11:11:27.991Z,101488.50
2023-05-24T11:13:56.535Z,101493.41
2023-05-24T11:16:22.994Z,101501.19
2023-05-24T11:18:49.532Z,101494.81
2023-05-24T11:21:15.791Z,101494.25
2023-05-24T11:23:42.043Z,101499.09
2023-05-24T11:26:10.810Z,101497.41
2023-05-24T11:28:42.330Z,101498.81
2023-05-24T11:31:08.807Z,101496.63
2023-05-24T11:33:35.094Z,101503.69
2023-05-24T11:36:04.050Z,101498.59
2023-05-24T11:38:33.463Z,101505.31
2023-05-24T11:41:04.295Z,101496.94
2023-05-24T11:43:30.648Z,101496.13
2023-05-24T11:45:56.942Z,101492.09
2023-05-24T11:48:23.234Z,101497.78
2023-05-24T11:50:54.412Z,101493.03
2023-05-24T11:53:20.878Z,101502.00
2023-05-24T11:55:50.147Z,101497.16
2023-05-24T11:58:16.667Z,101494.44
2023-05-24T12:00:43.283Z,101502.56
2023-05-24T12:03:10.174Z,101500.00
2023-05-24T12:05:36.664Z,101498.69
2023-05-24T12:08:05.300Z,101498.91
2023-05-24T12:10:37.643Z,101496.78
2023-05-24T12:13:05.452Z,101503.06
2023-05-24T12:15:35.039Z,101497.84
2023-05-24T12:18:01.437Z,101504.41
2023-05-24T12:20:30.863Z,101505.38
2023-05-24T12:22:57.187Z,101505.72
2023-05-24T12:25:24.330Z,101512.69
2023-05-24T12:27:52.285Z,101514.69
2023-05-24T12:30:20.531Z,101510.91
2023-05-24T12:32:53.066Z,101510.66
2023-05-24T12:35:24.653Z,101504.41
2023-05-24T12:37:51.059Z,101509.75
2023-05-24T12:40:17.352Z,101509.25
2023-05-24T12:42:43.844Z,101514.88
2023-05-24T12:45:16.877Z,101513.72
2023-05-24T12:47:43.192Z,101516.88
2023-05-24T12:50:16.899Z,101513.63
2023-05-24T12:52:43.487Z,101510.91
2023-05-24T12:55:10.050Z,101520.91
2023-05-24T12:57:36.295Z,101520.09
2023-05-24T13:00:04.324Z,101516.47
2023-05-24T13:02:30.637Z,101510.81
2023-05-24T13:04:56.973Z,101515.72
2023-05-24T13:07:30.282Z,101511.13
2023-05-24T13:09:56.884Z,101513.84
2023-05-24T13:12:23.509Z,101513.84
2023-05-24T13:14:52.669Z,101501.13
2023-05-24T13:17:22.351Z,101504.31
2023-05-24T13:19:48.848Z,101502.69
2023-05-24T13:22:17.267Z,101503.00
2023-05-24T13:24:45.678Z,101496.75
2023-05-24T13:27:11.923Z,101501.38
2023-05-24T13:29:48.827Z,101498.22
2023-05-24T13:32:24.458Z,101506.94
2023-05-24T13:34:50.806Z,101509.50
2023-05-24T13:37:19.282Z,101501.03
2023-05-24T13:39:45.633Z,101503.63
2023-05-24T13:42:16.365Z,101511.88
2023-05-24T13:44:49.474Z,101502.69
2023-05-24T13:47:38.754Z,101510.72
2023-05-24T13:50:06.476Z,101505.28
2023-05-24T13:52:32.789Z,101510.72
2023-05-24T13:55:06.707Z,101506.94
2023-05-24T13:57:49.684Z,101506.56
2023-05-24T14:00:25.156Z,101497.00
2023-05-24T14:02:51.434Z,101496.69
2023-05-24T14:05:27.345Z,101496.69
2023-05-24T14:07:59.279Z,101493.41
2023-05-24T14:10:25.573Z,101499.06
2023-05-24T14:13:03.928Z,101490.94
2023-05-24T14:15:44.627Z,101488.47
2023-05-24T14:18:13.907Z,101487.38
2023-05-24T14:20:41.373Z,101477.63
2023-05-24T14:23:12.171Z,101479.25
2023-05-24T14:25:43.146Z,101477.16
2023-05-24T14:28:09.642Z,101479.25
2023-05-24T14:30:40.659Z,101480.09
2023-05-24T14:33:10.572Z,101482.81
2023-05-24T14:35:36.825Z,101486.31
2023-05-24T14:38:04.963Z,101490.09
2023-05-24T14:40:33.703Z,101483.84
2023-05-24T14:43:00.153Z,101493.03
2023-05-24T14:45:26.401Z,101494.09
2023-05-24T14:47:56.122Z,101495.19
2023-05-24T14:50:23.364Z,101497.88
2023-05-24T14:52:55.112Z,101496.25
2023-05-24T14:55:21.924Z,101498.13
2023-05-24T14:57:48.328Z,101494.56
2023-05-24T15:00:19.807Z,101488.34
2023-05-24T15:02:47.960Z,101503.19
2023-05-24T15:05:16.020Z,101496.47
2023-05-24T15:07:42.288Z,101499.44
2023-05-24T15:10:10.561Z,101491.31
2023-05-24T15:12:36.864Z,101491.53
2023-05-24T15:15:03.116Z,101495.88
2023-05-24T15:17:33.118Z,101499.66
2023-05-24T15:19:59.487Z,101494.25
2023-05-24T15:22:35.058Z,101498.81
2023-05-24T15:25:04.265Z,101493.41
2023-05-24T15:27:30.544Z,101497.19
2023-05-24T15:30:03.433Z,101491.78
2023-05-24T15:32:34.758Z,101498.25
2023-05-24T15:35:03.380Z,101496.38
2023-05-24T15:37:29.680Z,101492.84
2023-05-24T15:39:55.957Z,101498.25
2023-05-24T15:42:25.864Z,101495.56
2023-05-24T15:44:52.172Z,101497.41
2023-05-24T15:47:21.933Z,101498.25
2023-05-24T15:49:48.703Z,101496.63
2023-05-24T15:52:15.177Z,101500.13
2023-05-24T15:54:41.447Z,101496.63
2023-05-24T15:57:07.777Z,101492.25
2023-05-24T15:59:34.178Z,101494.72
2023-05-24T16:02:06.315Z,101484.13
2023-05-24T16:04:35.783Z,101482.47
2023-05-24T16:07:02.188Z,101484.13
2023-05-24T16:09:28.435Z,101489.53
2023-05-24T16:11:54.696Z,101484.13
2023-05-24T16:14:21.147Z,101487.66
2023-05-24T16:16:47.467Z,101487.91
2023-05-24T16:19:13.751Z,101483.06
2023-05-24T16:21:41.536Z,101486.81
2023-05-24T16:24:10.884Z,101484.13
2023-05-24T16:26:41.470Z,101486.03
2023-05-24T16:29:07.751Z,101483.31
2023-05-24T16:31:34.174Z,101484.13
2023-05-24T16:34:00.558Z,101489.53
2023-05-24T16:36:26.810Z,101486.03
2023-05-24T16:38:55.499Z,101487.91
2023-05-24T16:41:21.743Z,101489.53
2023-05-24T16:43:52.424Z,101493.31
2023-05-24T16:46:25.328Z,101493.06
2023-05-24T16:48:54.099Z,101489.53
2023-05-24T16:51:23.738Z,101486.81
2023-05-24T16:53:50.000Z,101489.53
2023-05-24T16:56:16.250Z,101485.78
2023-05-24T16:58:42.506Z,101489.53
2023-05-24T17:01:08.761Z,101484.13
2023-05-24T17:03:37.413Z,101492.84
2023-05-24T17:06:04.172Z,101496.63
2023-05-24T17:08:34.326Z,101495.56
2023-05-24T17:11:00.615Z,101501.19
2023-05-24T17:13:29.451Z,101489.53
2023-05-24T17:15:55.891Z,101496.63
2023-05-24T17:18:23.497Z,101497.66
2023-05-24T17:20:49.826Z,101493.91
2023-05-24T17:23:16.175Z,101499.31
2023-05-24T17:25:42.453Z,101500.38
2023-05-24T17:28:10.093Z,101505.78
2023-05-24T17:30:36.356Z,101506.63
2023-05-24T17:33:02.725Z,101510.16
2023-05-24T17:35:29.058Z,101509.31
2023-05-24T17:37:55.315Z,101515.56
2023-05-24T17:40:24.057Z,101512.88
2023-05-24T17:42:50.662Z,101522.88
2023-05-24T17:45:24.039Z,101516.63
2023-05-24T17:47:50.328Z,101519.91
2023-05-24T17:50:20.206Z,101524.72
2023-05-24T17:52:47.061Z,101523.69
2023-05-24T17:55:18.494Z,101529.91
2023-05-24T17:57:44.779Z,101524.50
2023-05-24T18:00:11.536Z,101523.69
2023-05-24T18:02:39.635Z,101526.63
2023-05-24T18:05:06.055Z,101527.44
2023-05-24T18:07:32.476Z,101525.81
2023-05-24T18:10:04.286Z,101525.56
2023-05-24T18:12:30.605Z,101525.81
2023-05-24T18:14:57.001Z,101532.06
2023-05-24T18:17:23.426Z,101532.06
2023-05-24T18:19:55.298Z,101545.59
2023-05-24T18:22:23.298Z,101541.25
2023-05-24T18:24:49.571Z,101542.06
2023-05-24T18:27:15.970Z,101538.53
2023-05-24T18:29:46.279Z,101538.78
2023-05-24T18:32:12.630Z,101540.19
2023-05-24T18:34:38.950Z,101542.88
2023-05-24T18:37:05.221Z,101542.88
2023-05-24T18:39:31.684Z,101546.16
2023-05-24T18:42:02.877Z,101551.59
2023-05-24T18:44:30.871Z,101552.41
2023-05-24T18:46:57.276Z,101552.41
2023-05-24T18:49:23.555Z,101554.06
2023-05-24T18:51:49.855Z,101556.75
2023-05-24T18:54:16.173Z,101558.41
2023-05-24T18:56:42.480Z,101557.59
2023-05-24T18:59:13.159Z,101564.88
2023-05-24T19:01:39.628Z,101569.50
2023-05-24T19:04:09.177Z,101573.84
2023-05-24T19:06:37.753Z,101573.84
2023-05-24T19:09:04.005Z,101574.91
2023-05-24T19:11:30.382Z,101577.63
2023-05-24T19:14:05.062Z,101570.31
2023-05-24T19:16:31.368Z,101574.91
2023-05-24T19:18:58.778Z,101580.34
2023-05-24T19:21:30.471Z,101590.31
2023-05-24T19:23:56.928Z,101589.50
2023-05-24T19:26:29.194Z,101588.69
2023-05-24T19:28:55.730Z,101592.19
2023-05-24T19:31:28.131Z,101593.25
2023-05-24T19:34:02.015Z,101592.44
2023-05-24T19:36:31.378Z,101602.22
2023-05-24T19:38:57.673Z,101608.44
2023-05-24T19:41:27.556Z,101604.09
2023-05-24T19:43:56.065Z,101608.69
2023-05-24T19:46:22.779Z,101614.09
2023-05-24T19:48:49.040Z,101607.88
2023-05-24T19:51:18.562Z,101612.44
2023-05-24T19:53:48.223Z,101621.66
2023-05-24T19:56:14.497Z,101621.66
2023-05-24T19:58:44.714Z,101618.94
2023-05-24T20:01:11.205Z,101620.81
2023-05-24T20:03:37.779Z,101624.34
2023-05-24T20:06:04.153Z,101628.13
2023-05-24T20:08:30.482Z,101628.94
2023-05-24T20:10:58.488Z,101631.63
2023-05-24T20:13:24.798Z,101641.66
2023-05-24T20:15:55.897Z,101636.25
2023-05-24T20:18:22.471Z,101630.84
2023-05-24T20:20:48.918Z,101634.56
2023-05-24T20:23:16.989Z,101640.84
2023-05-24T20:25:45.799Z,101632.94
2023-05-24T20:28:25.675Z,101619.63
2023-05-24T20:30:55.592Z,101630.22
2023-05-24T20:33:22.144Z,101631.31
2023-05-24T20:35:48.538Z,101634.84
2023-05-24T20:38:18.466Z,101631.31
2023-05-24T20:40:45.134Z,101631.31
2023-05-24T20:43:17.248Z,101631.53
2023-05-24T20:45:45.654Z,101640.50
2023-05-24T20:48:12.259Z,101644.25
2023-05-24T20:50:39.114Z,101649.69
2023-05-24T20:53:09.945Z,101644.25
2023-05-24T20:55:36.314Z,101647.19
2023-05-24T20:58:02.817Z,101653.41
2023-05-24T21:00:29.125Z,101645.28
2023-05-24T21:03:01.519Z,101656.13
2023-05-24T21:05:33.826Z,101650.13
2023-05-24T21:08:00.167Z,101662.59
2023-05-24T21:10:28.934Z,101660.97
2023-05-24T21:12:55.323Z,101660.13
2023-05-24T21:15:22.456Z,101659.91
2023-05-24T21:17:50.897Z,101663.69
2023-05-24T21:20:23.210Z,101659.91
2023-05-24T21:22:49.579Z,101663.69
2023-05-24T21:25:18.183Z,101673.66
2023-05-24T21:27:50.919Z,101659.31
2023-05-24T21:30:19.479Z,101663.91
2023-05-24T21:32:45.826Z,101660.34
2023-05-24T21:35:15.191Z,101660.59
2023-05-24T21:37:44.608Z,101671.19
2023-05-24T21:40:12.513Z,101676.84
2023-05-24T21:42:38.771Z,101673.31
2023-05-24T21:45:13.339Z,101680.59
2023-05-24T21:47:39.708Z,101679.81
2023-05-24T21:50:13.701Z,101675.19
2023-05-24T21:52:42.002Z,101682.50
2023-05-24T21:55:08.741Z,101678.97
2023-05-24T21:57:43.228Z,101688.16
2023-05-24T22:00:14.331Z,101693.56
2023-05-24T22:02:41.810Z,101695.44
2023-05-24T22:05:09.039Z,101689.22
2023-05-24T22:07:41.349Z,101690.25
2023-05-24T22:10:07.909Z,101689.44
2023-05-24T22:12:36.101Z,101692.16
2023-05-24T22:15:02.461Z,101698.84
2023-05-24T22:17:28.747Z,101700.50
2023-05-24T22:19:55.110Z,101702.59
2023-05-24T22:22:27.687Z,101709.69
2023-05-24T22:24:54.297Z,101702.84
2023-05-24T22:27:22.808Z,101699.31
2023-05-24T22:29:52.795Z,101702.03
2023-05-24T22:32:23.839Z,101700.97
2023-05-24T22:34:50.121Z,101693.06
2023-05-24T22:37:16.530Z,101698.97
2023-05-24T22:39:42.833Z,101696.84
2023-05-24T22:42:09.167Z,101694.59
2023-05-24T22:44:42.033Z,101692.50
2023-05-24T22:47:09.275Z,101692.72
2023-05-24T22:49:36.918Z,101691.88
2023-05-24T22:52:10.728Z,101691.88
2023-05-24T22:54:36.992Z,101696.25
2023-05-24T22:57:11.110Z,101690.25
2023-05-24T22:59:37.557Z,101692.94
2023-05-24T23:02:03.811Z,101697.53
2023-05-24T23:04:34.094Z,101685.88
2023-05-24T23:07:06.395Z,101692.09
2023-05-24T23:09:35.848Z,101686.13
2023-05-24T23:12:04.577Z,101683.41
2023-05-24T23:14:30.834Z,101682.56
2023-05-24T23:16:57.139Z,101689.28
2023-05-24T23:19:25.782Z,101695.53
2023-05-24T23:21:52.831Z,101698.22
2023-05-24T23:24:22.731Z,101691.75
2023-05-24T23:26:49.082Z,101683.63
2023-05-24T23:29:15.370Z,101687.28
2023-05-24T23:31:44.350Z,101693.88
2023-05-24T23:34:10.621Z,101696.81
2023-05-24T23:36:40.635Z,101696.81
2023-05-24T23:39:10.232Z,101698.09
2023-05-24T23:41:42.687Z,101698.09
2023-05-24T23:44:11.695Z,101701.03
2023-05-24T23:46:43.369Z,101709.75
2023-05-24T23:49:10.415Z,101701.03
2023-05-24T23:51:36.710Z,101705.63
2023-05-24T23:54:02.955Z,101704.56
2023-05-24T23:56:29.213Z,101704.81
2023-05-24T23:58:55.494Z,101699.84
